Time;durP1;ratioP1;P1;durP2;ratioP2;P2;SDS_P1;SDS_P2;PMS_P1;PMS_P2;Temp;Humidity;BMP_temperature;BMP_pressure;BME280_temperature;BME280_humidity;BME280_pressure;Samples;Min_cycle;Max_cycle;Signal;HPM_P1;HPM_P2
2021/12/14 00:01:24;;;;;;;7.72;5.47;;;12.50;78.90;;;;;;5027917;28;20087;-74
2021/12/14 00:03:55;;;;;;;7.60;5.05;;;12.50;78.90;;;;;;5027239;28;20279;-74
2021/12/14 00:06:22;;;;;;;6.90;4.95;;;12.50;79.00;;;;;;5028679;28;20488;-73
2021/12/14 00:08:57;;;;;;;6.35;4.55;;;12.40;78.90;;;;;;5028115;28;20038;-73
2021/12/14 00:11:54;;;;;;;5.38;4.75;;;12.40;78.90;;;;;;5028183;28;20042;-74
2021/12/14 00:15:02;;;;;;;6.78;5.30;;;12.40;79.00;;;;;;5027752;28;20715;-74
2021/12/14 00:17:26;;;;;;;9.40;5.05;;;12.40;79.00;;;;;;5027860;28;20029;-76
2021/12/14 00:19:56;;;;;;;8.23;5.32;;;12.30;78.90;;;;;;5026789;28;20696;-74
2021/12/14 00:22:36;;;;;;;7.75;5.47;;;12.30;78.90;;;;;;5028249;28;20056;-74
2021/12/14 00:25:04;;;;;;;7.43;5.47;;;12.30;78.90;;;;;;5026214;28;20036;-74
2021/12/14 00:27:30;;;;;;;8.55;5.60;;;12.30;79.00;;;;;;5027856;28;20448;-74
2021/12/14 00:30:00;;;;;;;7.68;5.25;;;12.20;78.90;;;;;;5027880;28;20038;-77
2021/12/14 00:32:29;;;;;;;7.68;5.90;;;12.20;78.90;;;;;;5028433;28;20496;-77
2021/12/14 00:34:59;;;;;;;6.18;4.90;;;12.20;79.50;;;;;;5027949;28;20380;-75
2021/12/14 00:37:37;;;;;;;8.50;5.80;;;12.20;79.10;;;;;;5028478;28;20037;-75
2021/12/14 00:40:19;;;;;;;7.10;5.65;;;12.20;79.10;;;;;;5025699;28;20037;-75
2021/12/14 00:42:46;;;;;;;8.00;5.28;;;12.10;79.00;;;;;;5026454;28;20476;-75
2021/12/14 00:45:12;;;;;;;8.75;6.07;;;12.10;79.00;;;;;;5026547;28;20415;-74
2021/12/14 00:47:38;;;;;;;5.63;4.82;;;12.10;79.00;;;;;;5027268;28;20029;-75
2021/12/14 00:50:08;;;;;;;10.48;5.88;;;12.10;79.10;;;;;;5027333;28;20044;-74
2021/12/14 00:52:35;;;;;;;7.55;4.80;;;12.10;79.10;;;;;;5009878;28;20544;-75
2021/12/14 00:55:01;;;;;;;8.05;5.65;;;12.00;78.90;;;;;;5026836;28;20057;-75
2021/12/14 00:57:27;;;;;;;8.50;5.75;;;12.00;79.00;;;;;;5026299;28;20446;-75
2021/12/14 00:59:53;;;;;;;6.30;5.70;;;12.00;79.10;;;;;;5025934;28;20084;-73
2021/12/14 01:02:22;;;;;;;7.93;5.85;;;11.90;78.90;;;;;;5010104;28;20301;-76
2021/12/14 01:04:58;;;;;;;7.22;6.32;;;11.90;79.00;;;;;;5027147;28;20045;-75
2021/12/14 01:07:28;;;;;;;7.45;5.18;;;11.90;79.10;;;;;;5025951;28;20033;-74
2021/12/14 01:09:59;;;;;;;7.70;5.25;;;11.90;79.10;;;;;;5025632;28;20403;-75
2021/12/14 01:12:36;;;;;;;6.38;5.63;;;11.90;79.10;;;;;;5026815;28;20124;-74
2021/12/14 01:15:29;;;;;;;8.18;5.55;;;11.80;79.00;;;;;;5027016;28;20036;-74
2021/12/14 01:20:59;;;;;;;8.98;5.93;;;11.80;79.10;;;;;;5025540;28;20056;-76
2021/12/14 01:23:31;;;;;;;7.25;6.22;;;11.90;79.20;;;;;;5025896;28;20033;-74
2021/12/14 01:26:05;;;;;;;9.20;6.93;;;11.80;79.10;;;;;;5027162;28;20033;-75
2021/12/14 01:28:32;;;;;;;7.28;5.53;;;11.80;79.10;;;;;;5025678;28;20270;-73
2021/12/14 01:31:22;;;;;;;6.88;6.18;;;11.80;79.10;;;;;;5026397;28;20132;-73
2021/12/14 01:33:54;;;;;;;7.03;6.22;;;11.80;79.20;;;;;;5025235;28;20029;-73
2021/12/14 01:36:30;;;;;;;7.78;5.72;;;11.90;79.30;;;;;;5025141;28;20286;-73
2021/12/14 01:42:03;;;;;;;8.40;5.18;;;11.90;79.30;;;;;;5025987;28;20025;-77
2021/12/14 01:44:38;;;;;;;8.57;6.57;;;11.90;79.30;;;;;;5021462;28;20064;-74
2021/12/14 01:47:13;;;;;;;6.97;6.15;;;11.90;79.20;;;;;;5022240;28;20028;-74
2021/12/14 01:49:47;;;;;;;8.05;5.70;;;11.90;79.20;;;;;;5025688;28;20124;-74
2021/12/14 01:52:31;;;;;;;10.32;6.10;;;11.90;79.20;;;;;;5025317;28;20037;-75
2021/12/14 01:55:19;;;;;;;8.57;5.97;;;11.90;79.20;;;;;;5025507;28;20113;-74
2021/12/14 01:57:46;;;;;;;7.93;5.68;;;11.90;79.20;;;;;;5025157;28;20087;-75
2021/12/14 02:00:20;;;;;;;6.97;5.40;;;11.90;79.20;;;;;;5024688;28;20488;-74
2021/12/14 02:02:48;;;;;;;9.02;6.38;;;11.90;79.20;;;;;;5026629;28;20029;-74
2021/12/14 02:05:26;;;;;;;8.13;6.53;;;11.90;79.20;;;;;;5024876;28;20049;-74
2021/12/14 02:07:55;;;;;;;8.10;6.25;;;12.00;79.40;;;;;;5024794;28;20025;-76
2021/12/14 02:10:25;;;;;;;7.68;5.82;;;12.00;79.40;;;;;;5025086;28;20041;-74
2021/12/14 02:12:52;;;;;;;9.70;6.97;;;12.00;79.30;;;;;;5025737;28;20025;-72
2021/12/14 02:15:23;;;;;;;6.97;5.95;;;12.00;79.30;;;;;;5025046;28;20033;-75
2021/12/14 02:17:53;;;;;;;8.13;6.10;;;12.00;79.30;;;;;;5025207;28;20077;-75
2021/12/14 02:20:23;;;;;;;8.52;5.90;;;12.00;79.30;;;;;;5025745;28;20040;-73
2021/12/14 02:22:50;;;;;;;6.40;5.55;;;12.00;79.20;;;;;;5024757;28;20037;-73
2021/12/14 02:25:17;;;;;;;6.80;5.82;;;12.00;79.20;;;;;;5024758;28;20037;-72
2021/12/14 02:27:47;;;;;;;10.00;5.97;;;12.00;79.20;;;;;;5024764;28;20307;-74
2021/12/14 02:30:19;;;;;;;6.88;5.82;;;12.00;79.20;;;;;;5023877;28;20092;-73
2021/12/14 02:32:45;;;;;;;7.60;6.28;;;12.00;79.20;;;;;;5027377;28;20038;-74
2021/12/14 02:35:14;;;;;;;7.93;6.55;;;12.00;79.20;;;;;;5026098;28;20033;-75
2021/12/14 02:37:47;;;;;;;8.32;6.38;;;12.00;79.20;;;;;;5026818;28;20033;-74
2021/12/14 02:40:20;;;;;;;;;;;12.00;79.20;;;;;;5028105;28;20099;-75
2021/12/14 02:42:51;;;;;;;8.43;5.97;;;12.00;79.20;;;;;;5027421;28;19909;-74
2021/12/14 02:45:24;;;;;;;9.18;5.78;;;12.00;79.10;;;;;;5029773;28;20061;-73
2021/12/14 02:47:50;;;;;;;7.65;6.28;;;12.00;79.10;;;;;;5033331;28;20029;-76
2021/12/14 02:50:16;;;;;;;6.97;5.80;;;12.10;79.30;;;;;;5033390;28;20373;-76
2021/12/14 02:52:42;;;;;;;10.18;5.90;;;12.00;79.20;;;;;;5034373;28;20080;-75
2021/12/14 02:55:20;;;;;;;7.75;5.70;;;12.00;79.20;;;;;;5017111;28;20099;-74
2021/12/14 02:57:53;;;;;;;8.65;5.60;;;12.10;79.30;;;;;;5034400;28;20416;-74
2021/12/14 03:00:26;;;;;;;7.80;6.38;;;12.00;79.20;;;;;;5034525;28;20029;-75
2021/12/14 03:02:53;;;;;;;7.22;5.97;;;12.10;79.40;;;;;;5033143;28;20044;-75
2021/12/14 03:05:24;;;;;;;8.57;5.72;;;12.10;79.30;;;;;;5032847;28;20421;-74
2021/12/14 03:07:56;;;;;;;6.03;5.30;;;12.10;79.40;;;;;;5015915;28;20527;-75
2021/12/14 03:10:39;;;;;;;9.68;6.03;;;12.10;79.30;;;;;;5033045;28;20045;-73
2021/12/14 03:13:10;;;;;;;;;;;12.10;79.40;;;;;;5032738;28;20132;-75
2021/12/14 03:15:45;;;;;;;10.18;5.10;;;12.10;79.30;;;;;;5049286;28;19909;-75
2021/12/14 03:18:14;;;;;;;6.07;4.88;;;12.10;79.20;;;;;;5034339;28;20486;-75
2021/12/14 03:20:49;;;;;;;5.97;5.30;;;12.10;79.30;;;;;;5015961;28;20515;-75
2021/12/14 03:23:17;;;;;;;8.23;5.97;;;12.10;79.30;;;;;;5034789;28;20021;-73
2021/12/14 03:25:47;;;;;;;8.63;5.57;;;12.10;79.30;;;;;;5033761;28;20034;-74
2021/12/14 03:28:15;;;;;;;9.20;6.10;;;12.10;79.30;;;;;;5034460;28;20030;-75
2021/12/14 03:30:49;;;;;;;7.63;5.20;;;12.10;79.30;;;;;;5033436;28;20038;-73
2021/12/14 03:33:24;;;;;;;8.30;6.45;;;12.10;79.30;;;;;;5033711;28;20485;-75
2021/12/14 03:36:07;;;;;;;7.93;5.45;;;12.20;79.50;;;;;;5032588;28;20030;-73
2021/12/14 03:38:50;;;;;;;6.15;5.32;;;12.20;79.50;;;;;;5032671;28;20121;-74
2021/12/14 03:41:29;;;;;;;9.60;6.32;;;12.20;79.40;;;;;;5031932;28;20030;-74
2021/12/14 03:44:00;;;;;;;9.43;5.28;;;12.20;79.40;;;;;;5032538;28;20076;-76
2021/12/14 03:46:44;;;;;;;7.25;5.75;;;12.20;79.30;;;;;;5032401;28;20029;-75
2021/12/14 03:49:10;;;;;;;8.73;5.70;;;12.20;79.30;;;;;;5032051;28;20088;-75
2021/12/14 03:51:39;;;;;;;9.27;5.85;;;12.20;79.30;;;;;;5032703;28;20041;-76
2021/12/14 03:54:06;;;;;;;8.55;5.72;;;12.30;79.40;;;;;;5030784;28;20049;-74
2021/12/14 03:56:34;;;;;;;9.15;5.13;;;12.30;79.90;;;;;;5031809;28;20039;-74
2021/12/14 03:59:00;;;;;;;8.27;5.40;;;12.30;79.40;;;;;;5031839;28;20448;-77
2021/12/14 04:01:36;;;;;;;7.93;5.00;;;12.30;79.30;;;;;;5031917;28;20128;-76
2021/12/14 04:04:26;;;;;;;7.00;4.53;;;12.30;79.30;;;;;;5015556;28;20749;-75
2021/12/14 04:06:55;;;;;;;9.73;5.93;;;12.30;79.20;;;;;;5031702;28;20545;-75
2021/12/14 04:09:25;;;;;;;5.32;4.72;;;12.40;79.40;;;;;;5033224;28;20469;-74
2021/12/14 04:11:52;;;;;;;6.65;4.97;;;12.40;79.40;;;;;;5031591;28;20496;-75
2021/12/14 04:14:20;;;;;;;8.40;5.47;;;12.40;79.30;;;;;;5031381;28;20025;-76
2021/12/14 04:16:49;;;;;;;7.57;5.25;;;12.40;79.30;;;;;;5031639;28;20029;-76
2021/12/14 04:19:22;;;;;;;10.18;5.95;;;12.50;79.40;;;;;;5031497;28;20025;-76
2021/12/14 04:21:54;;;;;;;7.00;5.38;;;12.40;79.20;;;;;;5031834;28;20488;-76
2021/12/14 04:24:25;;;;;;;7.30;4.75;;;12.50;79.40;;;;;;5031572;28;20389;-76
2021/12/14 04:26:55;;;;;;;10.18;5.50;;;12.50;79.30;;;;;;5031428;28;20521;-76
2021/12/14 04:29:21;;;;;;;7.50;5.00;;;12.50;79.30;;;;;;5031169;28;20072;-76
2021/12/14 04:31:49;;;;;;;7.00;5.28;;;12.50;79.20;;;;;;5031309;28;20033;-76
2021/12/14 04:34:19;;;;;;;6.57;4.90;;;12.50;79.20;;;;;;5031273;28;20029;-76
2021/12/14 04:36:50;;;;;;;8.00;5.18;;;12.50;79.20;;;;;;5031477;28;20032;-77
2021/12/14 04:39:42;;;;;;;8.48;5.45;;;12.50;79.20;;;;;;5047590;28;20040;-75
2021/12/14 04:53:53;;;;;;;6.53;5.57;;;12.50;79.20;;;;;;5031000;28;20460;-77
2021/12/14 04:56:27;;;;;;;7.05;5.85;;;12.50;79.20;;;;;;5030732;28;20040;-75
2021/12/14 04:59:07;;;;;;;7.18;5.43;;;12.50;79.10;;;;;;5031297;28;20477;-76
2021/12/14 05:01:37;;;;;;;6.90;5.65;;;12.50;79.10;;;;;;5030954;28;20041;-78
2021/12/14 05:04:27;;;;;;;7.15;5.20;;;12.50;79.20;;;;;;5030841;28;20065;-75
2021/12/14 05:07:03;;;;;;;9.65;5.82;;;12.60;79.30;;;;;;5047007;28;20044;-77
2021/12/14 05:09:34;;;;;;;7.82;5.03;;;12.60;79.30;;;;;;5030657;28;20036;-76
2021/12/14 05:12:16;;;;;;;9.15;5.47;;;12.60;79.30;;;;;;5030370;28;20044;-76
2021/12/14 05:14:52;;;;;;;6.93;5.60;;;12.60;79.20;;;;;;5030717;28;20120;-75
2021/12/14 05:17:22;;;;;;;10.20;6.65;;;12.60;79.20;;;;;;5047557;28;20037;-76
2021/12/14 05:19:52;;;;;;;8.65;4.68;;;12.60;79.20;;;;;;5030686;28;20116;-76
2021/12/14 05:22:23;;;;;;;9.07;5.95;;;12.60;79.10;;;;;;5030673;28;20030;-76
2021/12/14 05:24:55;;;;;;;8.07;5.53;;;12.60;79.10;;;;;;5031366;28;20036;-77
2021/12/14 05:27:27;;;;;;;9.25;5.88;;;12.60;79.10;;;;;;5030612;28;20029;-76
2021/12/14 05:30:27;;;;;;;7.95;5.75;;;12.60;79.10;;;;;;5029899;28;20037;-76
2021/12/14 05:33:19;;;;;;;8.95;5.38;;;12.60;79.10;;;;;;5031123;28;20044;-76
2021/12/14 05:35:48;;;;;;;6.88;4.63;;;12.60;79.00;;;;;;5031209;28;20116;-75
2021/12/14 05:38:27;;;;;;;7.25;5.30;;;12.60;79.00;;;;;;5030761;28;20061;-76
2021/12/14 05:41:08;;;;;;;9.77;5.30;;;12.60;79.00;;;;;;5030555;28;20079;-76
2021/12/14 05:43:40;;;;;;;7.57;4.45;;;12.70;79.20;;;;;;5030363;28;20029;-74
2021/12/14 05:46:27;;;;;;;8.65;4.97;;;12.60;79.00;;;;;;5029732;28;20049;-76
2021/12/14 05:49:25;;;;;;;7.40;5.07;;;12.60;79.00;;;;;;5014249;28;20124;-77
2021/12/14 05:51:53;;;;;;;7.65;4.82;;;12.70;79.20;;;;;;5007571;28;20045;-76
2021/12/14 05:54:32;;;;;;;8.10;5.13;;;12.70;79.20;;;;;;5007250;28;20034;-75
2021/12/14 05:57:03;;;;;;;8.55;5.10;;;12.70;79.20;;;;;;5023427;28;20034;-74
2021/12/14 05:59:33;;;;;;;4.80;4.10;;;12.70;79.10;;;;;;5026837;28;20503;-75
2021/12/14 06:02:02;;;;;;;7.32;4.75;;;12.70;79.10;;;;;;5026064;28;20099;-73
2021/12/14 06:04:36;;;;;;;6.97;4.95;;;12.70;79.00;;;;;;5021286;28;20053;-75
2021/12/14 06:07:03;;;;;;;7.45;5.38;;;12.70;79.00;;;;;;5006913;28;20053;-76
2021/12/14 06:09:31;;;;;;;8.88;5.30;;;12.70;78.90;;;;;;5023494;28;20029;-74
2021/12/14 06:12:20;;;;;;;8.27;6.00;;;12.70;78.90;;;;;;5025309;28;20040;-74
2021/12/14 06:14:52;;;;;;;5.68;4.38;;;12.80;79.10;;;;;;5024683;28;20022;-75
2021/12/14 06:17:31;;;;;;;7.90;4.72;;;12.80;79.00;;;;;;5028808;28;20053;-73
2021/12/14 06:20:03;;;;;;;7.57;4.75;;;12.80;79.00;;;;;;5031634;28;20040;-74
2021/12/14 06:22:30;;;;;;;6.78;4.35;;;12.80;78.90;;;;;;5015412;28;20028;-73
2021/12/14 06:25:01;;;;;;;7.97;5.20;;;12.80;78.90;;;;;;5031876;28;20037;-74
2021/12/14 06:27:31;;;;;;;11.18;5.35;;;12.80;79.40;;;;;;5031868;28;20033;-73
2021/12/14 06:30:11;;;;;;;9.13;4.45;;;12.80;78.90;;;;;;5031764;28;20048;-74
2021/12/14 06:32:44;;;;;;;8.65;5.22;;;12.80;78.90;;;;;;5031285;28;20056;-75
2021/12/14 06:35:17;;;;;;;8.13;4.93;;;12.80;78.90;;;;;;5031448;28;20029;-73
2021/12/14 06:40:45;;;;;;;7.57;5.32;;;12.80;78.90;;;;;;5031271;28;20158;-72
2021/12/14 06:43:18;;;;;;;6.55;4.47;;;12.80;78.80;;;;;;5032160;28;20029;-72
2021/12/14 06:45:55;;;;;;;8.48;5.05;;;12.80;78.90;;;;;;5031205;28;20516;-73
2021/12/14 06:48:26;;;;;;;6.68;4.45;;;12.80;78.90;;;;;;5030974;28;20125;-73
2021/12/14 06:51:06;;;;;;;7.68;5.30;;;12.80;78.80;;;;;;5031037;28;20091;-73
2021/12/14 06:53:51;;;;;;;6.78;5.07;;;12.80;78.90;;;;;;5030662;28;20033;-73
2021/12/14 06:56:37;;;;;;;7.50;5.22;;;12.80;78.80;;;;;;5032232;28;20035;-74
2021/12/14 06:59:14;;;;;;;;;;;12.80;78.80;;;;;;5032690;28;20495;-74
2021/12/14 07:02:11;;;;;;;6.78;4.88;;;12.80;78.70;;;;;;5025592;28;19909;-74
2021/12/14 07:05:00;;;;;;;7.88;5.32;;;12.80;78.70;;;;;;5031591;28;20049;-74
2021/12/14 07:07:32;;;;;;;6.15;4.30;;;12.80;78.60;;;;;;5030672;28;20036;-74
2021/12/14 07:10:05;;;;;;;6.93;4.57;;;12.90;78.90;;;;;;5030178;28;20041;-74
2021/12/14 07:12:34;;;;;;;5.03;4.45;;;12.80;78.70;;;;;;5031378;28;20087;-74
2021/12/14 07:15:11;;;;;;;5.95;4.78;;;12.80;78.70;;;;;;5035294;28;20033;-73
2021/12/14 07:17:43;;;;;;;8.45;5.38;;;12.90;79.10;;;;;;5014733;28;20027;-74
2021/12/14 07:20:21;;;;;;;14.15;6.03;;;12.90;79.20;;;;;;5032342;28;20457;-75
2021/12/14 07:22:51;;;;;;;6.75;5.45;;;12.90;79.20;;;;;;5030961;28;20037;-74
2021/12/14 07:25:24;;;;;;;5.13;3.88;;;12.90;79.20;;;;;;5031364;28;20653;-73
2021/12/14 07:27:55;;;;;;;7.35;4.80;;;12.90;79.20;;;;;;5030908;28;20045;-73
2021/12/14 07:30:30;;;;;;;6.03;4.75;;;12.90;79.20;;;;;;5028930;28;20037;-73
2021/12/14 07:33:19;;;;;;;5.03;4.35;;;12.90;79.20;;;;;;5028521;28;20376;-74
2021/12/14 07:36:05;;;;;;;5.43;3.78;;;12.90;79.30;;;;;;5010928;28;20590;-72
2021/12/14 07:39:04;;;;;;;7.65;4.30;;;12.90;79.30;;;;;;5011290;28;20098;-74
2021/12/14 07:41:36;;;;;;;6.65;4.22;;;12.90;79.30;;;;;;5028636;28;20032;-75
2021/12/14 07:44:11;;;;;;;6.13;4.15;;;12.90;79.30;;;;;;5027205;28;20035;-74
2021/12/14 07:46:47;;;;;;;5.07;3.70;;;12.90;79.20;;;;;;5027830;28;20033;-76
2021/12/14 07:49:22;;;;;;;7.80;4.15;;;12.90;79.30;;;;;;5028632;28;20092;-73
2021/12/14 07:51:51;;;;;;;6.88;4.70;;;12.90;79.30;;;;;;5027085;28;20041;-76
2021/12/14 07:54:33;;;;;;;6.68;4.45;;;12.90;79.20;;;;;;5018900;28;20385;-73
2021/12/14 07:57:03;;;;;;;10.43;5.15;;;12.90;79.20;;;;;;5009193;28;20470;-76
2021/12/14 07:59:33;;;;;;;6.35;5.00;;;12.90;79.20;;;;;;5024215;28;20033;-74
2021/12/14 08:02:09;;;;;;;5.90;3.70;;;12.80;79.00;;;;;;5027523;28;20136;-77
2021/12/14 08:04:37;;;;;;;7.25;4.20;;;12.80;79.10;;;;;;5027900;28;20056;-77
2021/12/14 08:07:05;;;;;;;7.78;4.80;;;12.80;79.10;;;;;;5028575;28;20608;-71
2021/12/14 08:09:48;;;;;;;5.72;3.50;;;12.80;79.10;;;;;;5028213;28;20047;-75
2021/12/14 08:12:50;;;;;;;8.10;3.95;;;12.80;79.30;;;;;;5025527;28;20443;-75
2021/12/14 08:15:31;;;;;;;12.95;4.65;;;12.90;80.30;;;;;;5027062;28;20021;-75
2021/12/14 08:18:11;;;;;;;8.30;4.40;;;13.10;80.60;;;;;;5028840;28;20040;-74
2021/12/14 08:20:46;;;;;;;8.27;4.55;;;13.30;80.80;;;;;;5028339;28;20392;-75
2021/12/14 08:23:20;;;;;;;6.47;3.58;;;13.50;80.50;;;;;;5026879;28;20037;-75
2021/12/14 08:25:47;;;;;;;5.80;3.33;;;13.70;80.50;;;;;;5026505;28;20423;-75
2021/12/14 08:28:14;;;;;;;8.32;3.65;;;13.70;80.20;;;;;;5028076;28;20481;-74
2021/12/14 08:30:44;;;;;;;6.03;3.17;;;13.70;80.00;;;;;;5020528;28;20324;-74
2021/12/14 08:33:19;;;;;;;6.10;4.15;;;13.70;80.00;;;;;;5021297;28;20550;-76
2021/12/14 08:35:46;;;;;;;8.88;4.13;;;13.70;80.00;;;;;;5027376;28;20105;-76
2021/12/14 08:38:16;;;;;;;7.05;5.00;;;13.70;79.90;;;;;;5027495;28;20179;-75
2021/12/14 08:40:47;;;;;;;8.35;3.85;;;13.60;79.80;;;;;;5027404;28;20041;-75
2021/12/14 08:43:23;;;;;;;7.72;4.25;;;13.60;79.90;;;;;;5027218;28;20026;-75
2021/12/14 08:45:57;;;;;;;6.13;3.67;;;13.60;79.90;;;;;;5026370;28;20025;-73
2021/12/14 08:48:30;;;;;;;7.00;3.58;;;13.50;79.70;;;;;;5021272;28;20061;-74
2021/12/14 08:51:13;;;;;;;6.15;4.22;;;13.50;79.80;;;;;;5018389;28;20397;-74
2021/12/14 08:53:55;;;;;;;5.57;3.85;;;13.50;79.80;;;;;;5026286;28;20036;-75
2021/12/14 08:56:22;;;;;;;4.90;3.65;;;13.50;79.70;;;;;;5027455;28;20064;-74
2021/12/14 08:58:50;;;;;;;5.28;3.80;;;13.50;79.70;;;;;;5027239;28;20034;-73
2021/12/14 09:01:23;;;;;;;6.57;4.32;;;13.50;79.80;;;;;;5027463;28;20087;-73
2021/12/14 09:04:00;;;;;;;5.50;4.10;;;13.40;79.50;;;;;;5026722;28;20045;-75
2021/12/14 09:06:32;;;;;;;7.13;5.00;;;13.40;79.50;;;;;;5027362;28;20450;-75
2021/12/14 09:09:02;;;;;;;6.65;3.40;;;13.40;79.50;;;;;;5027384;28;20084;-75
2021/12/14 09:11:33;;;;;;;5.18;3.63;;;13.50;79.60;;;;;;5026097;28;20037;-75
2021/12/14 09:13:59;;;;;;;5.45;4.05;;;13.40;79.40;;;;;;5026535;28;20031;-75
2021/12/14 09:16:28;;;;;;;7.07;4.47;;;13.50;79.50;;;;;;5027258;28;20044;-75
2021/12/14 09:19:20;;;;;;;4.50;3.58;;;13.50;79.50;;;;;;5026703;28;20118;-74
2021/12/14 09:21:52;;;;;;;5.55;3.67;;;13.50;79.40;;;;;;5026569;28;20087;-74
2021/12/14 09:24:22;;;;;;;6.13;4.45;;;13.50;79.30;;;;;;5026969;28;20061;-76
2021/12/14 09:26:53;;;;;;;4.53;3.88;;;13.50;79.30;;;;;;5027196;28;20033;-76
2021/12/14 09:29:23;;;;;;;6.35;4.03;;;13.60;79.40;;;;;;5025473;28;20485;-74
2021/12/14 09:31:52;;;;;;;6.43;5.03;;;13.60;79.30;;;;;;5025845;28;20029;-74
2021/12/14 09:34:23;;;;;;;4.85;4.35;;;13.60;79.20;;;;;;5026532;28;20121;-74
2021/12/14 09:36:51;;;;;;;4.20;3.65;;;13.60;79.20;;;;;;5025913;28;20056;-73
2021/12/14 09:39:29;;;;;;;4.97;3.63;;;13.60;79.20;;;;;;5026695;28;20021;-74
2021/12/14 09:42:01;;;;;;;6.72;4.63;;;13.60;79.10;;;;;;5024990;28;20040;-75
2021/12/14 09:44:30;;;;;;;7.10;5.28;;;13.60;79.10;;;;;;5025277;28;20109;-76
2021/12/14 09:46:59;;;;;;;7.50;4.63;;;13.60;79.10;;;;;;5026927;28;20041;-75
2021/12/14 09:49:26;;;;;;;4.93;3.83;;;13.50;78.90;;;;;;5025517;28;20026;-73
2021/12/14 09:51:59;;;;;;;6.93;4.03;;;13.50;78.90;;;;;;5024562;28;20116;-75
2021/12/14 09:54:25;;;;;;;;;;;13.60;79.10;;;;;;5026506;28;20120;-73
2021/12/14 09:57:14;;;;;;;7.45;3.95;;;13.60;79.10;;;;;;5026456;28;20000;-75
2021/12/14 09:59:41;;;;;;;7.95;5.35;;;13.50;78.90;;;;;;5025694;28;20045;-74
2021/12/14 10:02:19;;;;;;;8.07;4.53;;;13.60;79.00;;;;;;5026372;28;20378;-74
2021/12/14 10:04:51;;;;;;;8.13;4.05;;;13.60;78.90;;;;;;5026208;28;20500;-72
2021/12/14 10:07:17;;;;;;;4.88;3.65;;;13.60;78.90;;;;;;5026180;28;20079;-74
2021/12/14 10:09:48;;;;;;;6.40;3.95;;;13.70;79.00;;;;;;5026169;28;20192;-73
2021/12/14 10:15:17;;;;;;;6.30;4.25;;;13.70;78.90;;;;;;5026003;28;20113;-74
2021/12/14 10:17:44;;;;;;;4.70;3.88;;;13.70;78.90;;;;;;5026320;28;20112;-74
2021/12/14 10:20:15;;;;;;;7.20;5.13;;;13.70;78.80;;;;;;5008032;28;20817;-76
2021/12/14 10:22:41;;;;;;;5.70;4.00;;;13.80;78.90;;;;;;5025796;28;20390;-74
2021/12/14 10:25:12;;;;;;;7.43;4.03;;;13.80;78.80;;;;;;5025578;28;20029;-76
2021/12/14 10:27:38;;;;;;;7.50;4.35;;;13.80;78.70;;;;;;4992120;28;20467;-74
2021/12/14 10:30:09;;;;;;;4.80;3.90;;;13.80;78.70;;;;;;5025545;28;20520;-73
2021/12/14 10:32:36;;;;;;;5.05;4.25;;;13.80;78.80;;;;;;5025476;28;20064;-74
2021/12/14 10:35:12;;;;;;;4.78;3.88;;;13.90;78.90;;;;;;5025979;28;20068;-75
2021/12/14 10:37:57;;;;;;;8.60;4.07;;;13.90;78.80;;;;;;5026090;28;20696;-75
2021/12/14 10:43:21;;;;;;;5.97;4.57;;;14.00;78.80;;;;;;5025397;28;20393;-75
2021/12/14 10:46:01;;;;;;;5.65;3.97;;;14.00;78.70;;;;;;5025492;28;20037;-74
2021/12/14 10:48:34;;;;;;;4.93;3.97;;;14.00;78.60;;;;;;5026229;28;20033;-74
2021/12/14 10:51:05;;;;;;;6.85;3.70;;;14.10;78.80;;;;;;5026022;28;20091;-74
2021/12/14 10:53:32;;;;;;;7.90;4.38;;;14.10;78.70;;;;;;5024313;28;20036;-76
2021/12/14 10:56:09;;;;;;;6.30;4.60;;;14.10;78.60;;;;;;5025316;28;20029;-74
2021/12/14 10:58:36;;;;;;;7.50;5.18;;;14.10;78.50;;;;;;5024068;28;20021;-74
2021/12/14 11:01:08;;;;;;;7.40;4.35;;;14.20;78.70;;;;;;5024545;28;20034;-73
2021/12/14 11:03:38;;;;;;;4.93;3.97;;;14.20;78.70;;;;;;5026135;28;20389;-73
2021/12/14 11:06:12;;;;;;;5.40;4.25;;;14.10;78.50;;;;;;5030308;28;20129;-73
2021/12/14 11:09:00;;;;;;;5.43;3.90;;;14.20;78.70;;;;;;5029857;28;20388;-74
2021/12/14 11:11:36;;;;;;;6.15;4.15;;;14.20;78.60;;;;;;5029235;28;20051;-74
2021/12/14 11:14:07;;;;;;;4.82;4.43;;;14.30;78.70;;;;;;5028963;28;20030;-75
2021/12/14 11:19:58;;;;;;;6.07;3.90;;;14.40;78.70;;;;;;5027711;28;20103;-74
2021/12/14 11:22:40;;;;;;;8.05;4.43;;;14.40;78.50;;;;;;4986914;28;20539;-74
2021/12/14 11:25:16;;;;;;;5.32;4.63;;;14.40;78.50;;;;;;5025708;28;20029;-73
2021/12/14 11:27:47;;;;;;;5.15;4.32;;;14.40;78.50;;;;;;5028609;28;20033;-73
2021/12/14 11:30:18;;;;;;;5.18;4.68;;;14.40;78.40;;;;;;5028334;28;20420;-75
2021/12/14 11:32:48;;;;;;;5.00;4.30;;;14.40;78.30;;;;;;5027416;28;20030;-74
2021/12/14 11:35:27;;;;;;;7.35;4.30;;;14.50;78.50;;;;;;5028779;28;20034;-74
2021/12/14 11:37:55;;;;;;;5.85;4.20;;;14.50;78.50;;;;;;5028488;28;20037;-74
2021/12/14 11:40:24;;;;;;;4.60;4.07;;;14.50;78.40;;;;;;5028113;28;20061;-74
2021/12/14 11:42:52;;;;;;;7.75;4.35;;;14.50;78.30;;;;;;5028542;28;20036;-74
2021/12/14 11:45:21;;;;;;;5.13;4.60;;;14.50;78.30;;;;;;5028298;28;20415;-74
2021/12/14 11:47:54;;;;;;;5.43;4.43;;;14.50;78.40;;;;;;5028216;28;20603;-75
2021/12/14 11:50:44;;;;;;;5.90;4.07;;;14.50;78.40;;;;;;5028567;28;20026;-75
2021/12/14 11:53:15;;;;;;;5.47;3.53;;;14.60;78.50;;;;;;5028646;28;20335;-75
2021/12/14 11:55:56;;;;;;;7.35;3.47;;;14.70;78.70;;;;;;5027988;28;20026;-74
2021/12/14 11:58:33;;;;;;;8.07;3.90;;;14.80;78.90;;;;;;5028323;28;20373;-75
2021/12/14 12:01:20;;;;;;;5.10;3.55;;;14.90;78.90;;;;;;5027424;28;20025;-74
2021/12/14 12:03:51;;;;;;;4.68;3.60;;;15.00;78.80;;;;;;5027887;28;20064;-74
2021/12/14 12:09:28;;;;;;;6.22;4.22;;;15.10;79.30;;;;;;5028729;28;20331;-75
2021/12/14 12:12:06;;;;;;;4.53;3.63;;;15.10;78.70;;;;;;5028055;28;20396;-74
2021/12/14 12:14:55;;;;;;;6.22;4.35;;;15.10;78.70;;;;;;5028308;28;20401;-74
2021/12/14 12:17:33;;;;;;;6.03;3.70;;;15.00;78.50;;;;;;5027792;28;20473;-74
2021/12/14 12:20:19;;;;;;;6.20;3.83;;;15.00;78.60;;;;;;5027895;28;20030;-75
2021/12/14 12:22:49;;;;;;;5.57;3.67;;;15.00;78.60;;;;;;5026918;28;20355;-75
2021/12/14 12:25:57;;;;;;;6.82;4.63;;;15.00;78.60;;;;;;5028156;28;20038;-74
2021/12/14 12:28:26;;;;;;;6.47;3.78;;;15.00;78.60;;;;;;5023762;28;20508;-75
2021/12/14 12:31:11;;;;;;;8.20;4.30;;;15.00;78.60;;;;;;5028239;28;20052;-75
2021/12/14 12:33:46;;;;;;;5.07;3.72;;;15.00;78.50;;;;;;5027860;28;20030;-74
2021/12/14 12:36:35;;;;;;;5.47;3.50;;;15.10;78.70;;;;;;5028156;28;20056;-76
2021/12/14 12:39:06;;;;;;;8.32;4.43;;;15.10;78.60;;;;;;5021671;28;20488;-74
2021/12/14 12:41:41;;;;;;;7.70;4.43;;;15.10;78.70;;;;;;5016571;28;20061;-74
2021/12/14 12:44:11;;;;;;;4.72;4.22;;;15.20;78.90;;;;;;5022656;28;20037;-73
2021/12/14 12:46:49;;;;;;;5.85;3.78;;;15.20;78.80;;;;;;5026665;28;20033;-75
2021/12/14 12:49:33;;;;;;;6.78;3.92;;;15.20;78.70;;;;;;5026422;28;20037;-74
2021/12/14 12:52:08;;;;;;;9.88;4.97;;;15.20;78.60;;;;;;5027094;28;20034;-74
2021/12/14 12:54:37;;;;;;;6.65;4.47;;;15.30;78.80;;;;;;5027575;28;20087;-75
2021/12/14 12:57:33;;;;;;;5.47;4.32;;;15.30;78.80;;;;;;5027132;28;20094;-75
2021/12/14 13:00:21;;;;;;;6.22;4.57;;;15.30;78.80;;;;;;5009431;28;20037;-74
2021/12/14 13:02:50;;;;;;;4.22;3.53;;;15.30;78.70;;;;;;5025712;28;20061;-75
2021/12/14 13:05:37;;;;;;;6.35;4.63;;;15.30;78.70;;;;;;5027053;28;20393;-74
2021/12/14 13:08:07;;;;;;;5.15;3.83;;;15.30;78.70;;;;;;5027022;28;20053;-75
2021/12/14 13:10:51;;;;;;;7.70;3.95;;;15.30;78.70;;;;;;5024284;28;20048;-75
2021/12/14 13:13:31;;;;;;;5.28;4.10;;;15.40;78.80;;;;;;5026925;28;20045;-73
2021/12/14 13:16:18;;;;;;;4.38;3.80;;;15.40;78.70;;;;;;5026602;28;20176;-75
2021/12/14 13:18:47;;;;;;;6.18;4.18;;;15.40;78.60;;;;;;5026927;28;20098;-74
2021/12/14 13:21:34;;;;;;;5.22;3.88;;;15.50;78.70;;;;;;5027636;28;20033;-73
2021/12/14 13:24:03;;;;;;;5.72;4.05;;;15.50;78.60;;;;;;5027053;28;20033;-75
2021/12/14 13:26:54;;;;;;;4.32;3.53;;;15.50;78.50;;;;;;5025835;28;20053;-75
2021/12/14 13:29:46;;;;;;;5.53;3.97;;;15.60;78.60;;;;;;5026578;28;20507;-73
2021/12/14 13:32:25;;;;;;;3.58;3.28;;;15.60;78.50;;;;;;5025561;28;20432;-75
2021/12/14 13:35:15;;;;;;;5.68;3.97;;;15.60;78.40;;;;;;5025562;28;20033;-74
2021/12/14 13:37:50;;;;;;;5.15;3.78;;;15.60;78.40;;;;;;5026174;28;20037;-74
2021/12/14 13:40:16;;;;;;;4.65;3.67;;;15.60;78.40;;;;;;5027424;28;20095;-74
2021/12/14 13:42:42;;;;;;;4.80;3.15;;;15.50;78.30;;;;;;5024673;28;20041;-76
2021/12/14 13:45:13;;;;;;;4.85;3.55;;;15.50;78.40;;;;;;5026431;28;20033;-76
2021/12/14 13:47:40;;;;;;;5.47;4.13;;;15.50;78.50;;;;;;5024468;28;20028;-76
2021/12/14 13:50:10;;;;;;;3.78;3.25;;;15.40;78.40;;;;;;5026053;28;20177;-75
2021/12/14 13:52:36;;;;;;;3.85;3.45;;;15.40;78.40;;;;;;5026045;28;20129;-75
2021/12/14 13:55:02;;;;;;;4.30;3.55;;;15.40;78.40;;;;;;5025098;28;20025;-74
2021/12/14 13:57:28;;;;;;;3.97;3.67;;;15.40;78.40;;;;;;5026941;28;20731;-74